地図

経路データ

SID SEASON NUMBER BASIN SUBBASIN NAME ISO_TIME NATURE LAT LON WMO_WIND WMO_PRES WMO_AGENCY TRACK_TYPE DIST2LAND LANDFALL IFLAG USA_AGENCY USA_ATCF_ID USA_LAT USA_LON USA_RECORD USA_STATUS USA_WIND USA_PRES USA_SSHS USA_R34_NE USA_R34_SE USA_R34_SW USA_R34_NW USA_R50_NE USA_R50_SE USA_R50_SW USA_R50_NW USA_R64_NE USA_R64_SE USA_R64_SW USA_R64_NW USA_POCI USA_ROCI USA_RMW USA_EYE TOKYO_LAT TOKYO_LON TOKYO_GRADE TOKYO_WIND TOKYO_PRES TOKYO_R50_DIR TOKYO_R50_LONG TOKYO_R50_SHORT TOKYO_R30_DIR TOKYO_R30_LONG TOKYO_R30_SHORT TOKYO_LAND CMA_LAT CMA_LON CMA_CAT CMA_WIND CMA_PRES HKO_LAT HKO_LON HKO_CAT HKO_WIND HKO_PRES NEWDELHI_LAT NEWDELHI_LON NEWDELHI_GRADE NEWDELHI_WIND NEWDELHI_PRES NEWDELHI_CI NEWDELHI_DP NEWDELHI_POCI REUNION_LAT REUNION_LON REUNION_TYPE REUNION_WIND REUNION_PRES REUNION_TNUM REUNION_CI REUNION_RMW REUNION_R34_NE REUNION_R34_SE REUNION_R34_SW REUNION_R34_NW REUNION_R50_NE REUNION_R50_SE REUNION_R50_SW REUNION_R50_NW REUNION_R64_NE REUNION_R64_SE REUNION_R64_SW REUNION_R64_NW BOM_LAT BOM_LON BOM_TYPE BOM_WIND BOM_PRES BOM_TNUM BOM_CI BOM_RMW BOM_R34_NE BOM_R34_SE BOM_R34_SW BOM_R34_NW BOM_R50_NE BOM_R50_SE BOM_R50_SW BOM_R50_NW BOM_R64_NE BOM_R64_SE BOM_R64_SW BOM_R64_NW BOM_ROCI BOM_POCI BOM_EYE BOM_POS_METHOD BOM_PRES_METHOD NADI_LAT NADI_LON NADI_CAT NADI_WIND NADI_PRES WELLINGTON_LAT WELLINGTON_LON WELLINGTON_WIND WELLINGTON_PRES DS824_LAT DS824_LON DS824_STAGE DS824_WIND DS824_PRES TD9636_LAT TD9636_LON TD9636_STAGE TD9636_WIND TD9636_PRES TD9635_LAT TD9635_LON TD9635_WIND TD9635_PRES TD9635_ROCI NEUMANN_LAT NEUMANN_LON NEUMANN_CLASS NEUMANN_WIND NEUMANN_PRES MLC_LAT MLC_LON MLC_CLASS MLC_WIND MLC_PRES USA_GUST BOM_GUST BOM_GUST_PER REUNION_GUST REUNION_GUST_PER USA_SEAHGT USA_SEARAD_NE USA_SEARAD_SE USA_SEARAD_SW USA_SEARAD_NW STORM_SPEED STORM_DIR
2009075S18197 2009 17 SP MM KEN 2009-03-16 00:00:00 TS -17.7000 -163.200 main 1057 1057 O_____________ jtwc_sh SH212009 -17.7000 -163.200 TD 20 1007 -1 6 0
2009075S18197 2009 17 SP MM KEN 2009-03-16 03:00:00 TS -18.0125 -163.210 main 1071 1066 P_____________ SH212009 -18.0125 -163.210 TD 22 1005 -1 8 194
2009075S18197 2009 17 SP MM KEN 2009-03-16 06:00:00 TS -18.4750 -163.400 25 1000 nadi main 1077 1077 O_____________ jtwc_sh SH212009 -18.3000 -163.200 TD 25 1004 -1 1008 150 40 -19.0000 -164.000 -1 25 1000 8 193
2009075S18197 2009 17 SP MM KEN 2009-03-16 09:00:00 TS -18.7892 -163.406 main 1093 1093 P______I______ SH212009 -18.5625 -163.157 TD 27 1002 -1 1008 150 40 -19.2425 -163.903 -1 25 1000 7 0
2009075S18197 2009 17 SP MM KEN 2009-03-16 12:00:00 TS -19.1571 -163.400 25 1000 nadi main 1115 1115 O_____________ jtwc_sh SH212009 -18.9000 -163.100 TD 30 1000 -1 1008 150 40 -19.5000 -163.800 -1 25 1000 8 177
2009075S18197 2009 17 SP MM KEN 2009-03-16 15:00:00 TS -19.5950 -163.369 main 1139 1139 P______I______ SH212009 -19.4050 -163.057 TD 32 998 -1 1006 157 37 -19.7849 -163.680 -1 25 1000 9 171
2009075S18197 2009 17 SP MM KEN 2009-03-16 18:00:00 TS -20.0500 -163.250 25 1000 nadi main 1182 1179 O_____________ jtwc_sh SH212009 -20.0000 -163.000 TS 35 996 0 1004 165 35 -20.1000 -163.500 -1 25 1000 10 163
2009075S18197 2009 17 SP MM KEN 2009-03-16 21:00:00 TS -20.5288 -163.058 main 1223 1223 P______I______ SH212009 -20.6300 -162.900 TS 35 996 0 1004 160 35 -20.4276 -163.215 -1 27 999 10 158
2009075S18197 2009 17 SP MM KEN 2009-03-17 00:00:00 TS -21.0000 -162.850 30 998 nadi main 1273 1273 O_____________ jtwc_sh SH212009 -21.2000 -162.800 TS 35 996 0 1005 155 35 -20.8000 -162.900 -1 30 998 10 158
2009075S18197 2009 17 SP MM KEN 2009-03-17 03:00:00 TS -21.4375 -162.659 main 1317 1317 P______I______ SH212009 -21.6100 -162.727 TS 35 996 0 1005 155 35 -21.2650 -162.590 -1 32 996 9 161
2009075S18197 2009 17 SP MM KEN 2009-03-17 06:00:00 TS -21.8000 -162.550 35 995 nadi main 1361 1361 O_____________ jtwc_sh SH212009 -21.9000 -162.700 TS 35 996 0 1005 155 35 -21.7000 -162.400 1 35 995 6 173
2009075S18197 2009 17 SP MM KEN 2009-03-17 09:00:00 TS -22.0662 -162.572 main 1375 1374 P______I______ SH212009 -22.1225 -162.735 TS 35 996 0 1005 155 35 -22.0098 -162.410 1 37 992 5 197
2009075S18197 2009 17 SP MM KEN 2009-03-17 12:00:00 TS -22.2500 -162.700 40 990 nadi main 1374 1367 O_____________ jtwc_sh SH212009 -22.3000 -162.800 TS 35 996 0 1005 155 35 -22.2000 -162.600 1 40 990 5 228
2009075S18197 2009 17 SP MM KEN 2009-03-17 15:00:00 TS -22.3752 -162.941 main 1374 1359 P______I______ SH212009 -22.5000 -162.887 TS 35 996 0 1005 182 35 -22.2504 -162.995 1 40 990 4 236
2009075S18197 2009 17 SP MM KEN 2009-03-17 18:00:00 TS -22.5000 -163.100 40 990 nadi main 1367 1367 O_____________ jtwc_sh SH212009 -22.7000 -162.900 TS 35 996 0 1006 210 35 -22.3000 -163.300 1 40 990 3 188
2009075S18197 2009 17 SP MM KEN 2009-03-17 21:00:00 TS -22.7099 -162.975 main 1390 1390 P______I______ SH212009 -22.9075 -162.753 TS 35 996 0 1006 210 35 -22.5124 -163.198 1 40 990 6 141
2009075S18197 2009 17 SP MM KEN 2009-03-18 00:00:00 TS -22.9500 -162.700 40 990 nadi main 1427 1435 O_____________ jtwc_sh SH212009 -23.1000 -162.500 TS 35 996 0 1006 210 35 -22.8000 -162.900 1 40 990 7 132
2009075S18197 2009 17 SP MM KEN 2009-03-18 03:00:00 TS -23.1675 -162.415 main 1473 1473 P______I______ SH212009 -23.2426 -162.207 TS 35 996 0 1006 210 35 -23.0925 -162.622 1 42 988 7 129
2009075S18197 2009 17 SP MM KEN 2009-03-18 06:00:00 TS -23.4000 -162.100 45 987 nadi main 1510 1510 O_____________ jtwc_sh SH212009 -23.4000 -161.900 TS 35 996 0 1006 210 35 -23.4000 -162.300 1 45 987 7 130
2009075S18197 2009 17 SP MM KEN 2009-03-18 09:00:00 TS -23.6487 -161.796 main 1548 1548 P______I______ SH212009 -23.6124 -161.642 TS 35 996 0 1006 210 35 -23.6850 -161.950 1 45 987 8 134
2009075S18197 2009 17 SP MM KEN 2009-03-18 12:00:00 TS -23.9429 -161.486 45 987 nadi main 1593 1593 O_____________ jtwc_sh SH212009 -23.9000 -161.400 TS 35 996 0 1006 210 35 -24.0000 -161.600 1 45 987 8 141
2009075S18197 2009 17 SP MM KEN 2009-03-18 15:00:00 TS -24.2965 -161.225 main 1646 1646 P______I______ SH212009 -24.2547 -161.194 TS 42 990 0 1006 210 35 -24.3801 -161.288 1 47 986 9 148
2009075S18197 2009 17 SP MM KEN 2009-03-18 18:00:00 TS -24.7333 -160.933 50 985 nadi main 1699 1699 O_______O_____ jtwc_sh SH212009 -24.7000 -160.900 TS 50 985 0 20 40 20 20 1006 210 35 -24.8000 -161.000 2 50 985 -24.8000 -161.000 50 985 12 140
2009075S18197 2009 17 SP MM KEN 2009-03-18 21:00:00 TS -25.2045 -160.381 main 1774 1774 P_______P_____ SH212009 -25.2053 -160.388 TS 50 985 0 20 40 20 20 1006 210 35 2 -25.2028 -160.369 47 986 15 135
2009075S18197 2009 17 SP MM KEN 2009-03-19 00:00:00 TS -25.8000 -159.757 45 987 wellington main 1864 1864 O_______O_____ jtwc_sh SH212009 -25.8000 -159.800 TS 50 985 0 20 40 20 20 1006 210 35 -25.8000 -159.700 45 987 18 141
2009075S18197 2009 17 SP MM KEN 2009-03-19 03:00:00 TS -26.5686 -159.150 main 1976 1976 P_______P_____ SH212009 -26.4319 -159.321 TS 50 985 0 27 40 25 25 -26.7052 -158.979 45 987 20 147
2009075S18197 2009 17 SP MM KEN 2009-03-19 06:00:00 TS -27.4500 -158.550 45 987 wellington main 2073 2081 O_______O_____ jtwc_sh SH212009 -27.2000 -158.800 TS 50 985 0 35 40 30 30 -27.7000 -158.300 45 987 20 149
2009075S18197 2009 17 SP MM KEN 2009-03-19 09:00:00 TS -28.2776 -158.010 main 2186 2186 P_______P_____ SH212009 -28.1094 -158.172 TS 50 985 0 35 40 30 30 -28.4458 -157.847 47 986 21 150
2009075S18197 2009 17 SP MM KEN 2009-03-19 12:00:00 TS -29.2429 -157.357 50 985 wellington main 2298 2298 O_______O_____ jtwc_sh SH212009 -29.2000 -157.400 TS 50 985 0 35 40 30 30 -29.3000 -157.300 50 985 26 148
2009075S18197 2009 17 SP MM KEN 2009-03-19 15:00:00 TS -30.4383 -156.446 main 2429 2423 P_______P_____ SH212009 -30.4095 -156.479 TS 50 985 0 35 40 30 30 -30.4959 -156.381 47 986 31 146
2009075S18197 2009 17 SP MM KEN 2009-03-19 18:00:00 TS -31.8200 -155.360 45 987 wellington main 2450 2450 O_______O_____ jtwc_sh SH212009 -31.8000 -155.400 TS 50 985 0 35 40 30 30 15 15 15 15 1006 210 35 -31.9000 -155.200 45 987 35 147
2009075S18197 2009 17 SP MM KEN 2009-03-19 21:00:00 TS -33.3548 -154.193 main 2492 2492 P_____________ SH212009 -33.3548 -154.193 TS 55 981 0 35 40 30 30 15 15 15 15 38 147
2009075S18197 2009 17 SP MM KEN 2009-03-20 00:00:00 ET -35.0000 -152.900 main 2553 2553 O_____________ jtwc_sh SH212009 -35.0000 -152.900 EX 60 978 -4 35 40 30 30 15 15 15 15 39 148
2009075S18197 2009 17 SP MM KEN 2009-03-20 03:00:00 ET -36.6270 -151.654 main 2617 2617 P_____________ SH212009 -36.6270 -151.654 EX 60 978 -4 38 147
2009075S18197 2009 17 SP MM KEN 2009-03-20 06:00:00 ET -38.2000 -150.300 main 2707 2707 O_____________ jtwc_sh SH212009 -38.2000 -150.300 EX 60 978 -4 38 143
2009075S18197 2009 17 SP MM KEN 2009-03-20 09:00:00 ET -39.6462 -148.732 main 2823 2823 P_____________ SH212009 -39.6462 -148.732 EX 60 978 -4 38 138
2009075S18197 2009 17 SP MM KEN 2009-03-20 12:00:00 ET -41.0000 -147.000 main 2950 O_____________ jtwc_sh SH212009 -41.0000 -147.000 EX 60 978 -4 38 136

デジタル台風データ・検索

IBTrACS Databaseについて

本データベースは、米国NOAAが公開する1842年以降の世界の熱帯低気圧のベストトラックデータアーカイブInternational Best Track Archive for Climate Stewardship (IBTrACS)を、ウェブで閲覧しやすい形式に変換したものです。

最終更新日:2021-10-08